createdAt,value
2018-09-20T00:00:50.142Z,21.40
2018-09-20T00:03:18.693Z,21.30
2018-09-20T00:05:47.217Z,21.20
2018-09-20T00:08:15.696Z,21.20
2018-09-20T00:10:44.228Z,21.10
2018-09-20T00:13:12.720Z,21.00
2018-09-20T00:15:41.225Z,21.00
2018-09-20T00:18:09.733Z,21.00
2018-09-20T00:20:38.240Z,20.90
2018-09-20T00:23:06.736Z,20.90
2018-09-20T00:25:35.256Z,20.80
2018-09-20T00:28:03.764Z,20.80
2018-09-20T00:30:32.337Z,20.80
2018-09-20T00:33:00.829Z,20.80
2018-09-20T00:35:29.341Z,20.80
2018-09-20T00:37:57.822Z,20.70
2018-09-20T00:40:26.341Z,20.70
2018-09-20T00:42:54.832Z,20.70
2018-09-20T00:45:23.353Z,20.70
2018-09-20T00:47:51.841Z,20.70
2018-09-20T00:50:20.373Z,20.60
2018-09-20T00:52:48.862Z,20.60
2018-09-20T00:55:17.377Z,20.50
2018-09-20T00:57:45.860Z,20.50
2018-09-20T01:00:14.477Z,20.50
2018-09-20T01:02:42.988Z,20.50
2018-09-20T01:05:11.533Z,20.50
2018-09-20T01:07:40.041Z,20.50
2018-09-20T01:10:08.557Z,20.50
2018-09-20T01:12:37.061Z,20.50
2018-09-20T01:15:06.661Z,20.40
2018-09-20T01:17:35.218Z,20.30
2018-09-20T01:20:03.848Z,20.30
2018-09-20T01:22:32.363Z,20.30
2018-09-20T01:25:00.860Z,20.20
2018-09-20T01:27:29.373Z,20.20
2018-09-20T01:29:57.856Z,20.20
2018-09-20T01:32:26.360Z,20.20
2018-09-20T01:34:54.881Z,20.20
2018-09-20T01:37:23.377Z,20.20
2018-09-20T01:39:51.856Z,20.20
2018-09-20T01:42:20.365Z,20.10
2018-09-20T01:44:48.848Z,20.00
2018-09-20T01:47:17.348Z,20.00
2018-09-20T01:49:45.833Z,20.00
2018-09-20T01:52:14.341Z,20.00
2018-09-20T01:54:42.841Z,20.00
2018-09-20T01:57:11.344Z,19.90
2018-09-20T01:59:39.825Z,19.90
2018-09-20T02:02:08.325Z,19.90
2018-09-20T02:04:36.815Z,19.90
2018-09-20T02:07:05.349Z,19.90
2018-09-20T02:09:33.845Z,19.80
2018-09-20T02:12:02.349Z,19.80
2018-09-20T02:14:30.833Z,19.80
2018-09-20T02:16:59.374Z,19.80
2018-09-20T02:19:27.861Z,19.70
2018-09-20T02:21:56.388Z,19.70
2018-09-20T02:24:24.876Z,19.70
2018-09-20T02:26:53.381Z,19.70
2018-09-20T02:29:21.907Z,19.70
2018-09-20T02:31:50.421Z,19.60
2018-09-20T02:34:18.917Z,19.60
2018-09-20T02:36:47.425Z,19.60
2018-09-20T02:39:15.921Z,19.50
2018-09-20T02:41:44.434Z,19.50
2018-09-20T02:44:12.921Z,19.50
2018-09-20T02:46:41.502Z,19.40
2018-09-20T02:49:09.948Z,19.40
2018-09-20T02:51:38.420Z,19.40
2018-09-20T02:54:06.913Z,19.40
2018-09-20T02:56:35.383Z,19.30
2018-09-20T02:59:03.907Z,19.30
2018-09-20T03:02:13.325Z,19.30
2018-09-20T03:04:41.809Z,19.20
2018-09-20T03:07:10.293Z,19.20
2018-09-20T03:09:38.736Z,19.20
2018-09-20T03:12:07.353Z,19.20
2018-09-20T03:14:35.793Z,19.20
2018-09-20T03:17:04.273Z,19.10
2018-09-20T03:19:32.725Z,19.10
2018-09-20T03:22:01.196Z,19.00
2018-09-20T03:24:29.665Z,19.00
2018-09-20T03:26:58.421Z,19.00
2018-09-20T03:29:26.887Z,19.00
2018-09-20T03:31:55.332Z,18.90
2018-09-20T03:34:23.792Z,18.90
2018-09-20T03:36:52.292Z,18.80
2018-09-20T03:39:20.764Z,18.80
2018-09-20T03:41:49.208Z,18.80
2018-09-20T03:44:17.657Z,18.80
2018-09-20T03:46:46.130Z,18.80
2018-09-20T03:49:14.576Z,18.80
2018-09-20T03:51:43.048Z,18.70
2018-09-20T03:54:11.509Z,18.80
2018-09-20T03:56:39.972Z,18.70
2018-09-20T03:59:08.416Z,18.70
2018-09-20T04:01:36.881Z,18.70
2018-09-20T04:04:05.325Z,18.70
2018-09-20T04:06:33.793Z,18.70
2018-09-20T04:09:02.245Z,18.70
2018-09-20T04:11:30.721Z,18.60
2018-09-20T04:13:59.164Z,18.60
2018-09-20T04:16:27.615Z,18.60
2018-09-20T04:18:56.097Z,18.50
2018-09-20T04:21:30.923Z,18.50
2018-09-20T04:24:00.109Z,18.50
2018-09-20T04:26:29.329Z,18.50
2018-09-20T04:28:58.261Z,18.50
2018-09-20T04:31:27.285Z,18.50
2018-09-20T04:33:56.008Z,18.40
2018-09-20T04:36:24.469Z,18.40
2018-09-20T04:38:52.925Z,18.30
2018-09-20T04:41:21.436Z,18.30
2018-09-20T04:43:49.923Z,18.20
2018-09-20T04:46:18.421Z,18.20
2018-09-20T04:48:46.884Z,18.20
2018-09-20T04:51:15.376Z,18.20
2018-09-20T04:53:43.853Z,18.20
2018-09-20T04:56:12.351Z,18.20
2018-09-20T04:58:40.829Z,18.10
2018-09-20T05:01:09.769Z,18.10
2018-09-20T05:03:38.245Z,18.10
2018-09-20T05:06:06.720Z,18.10
2018-09-20T05:08:35.197Z,18.10
2018-09-20T05:11:03.680Z,18.10
2018-09-20T05:13:32.161Z,18.10
2018-09-20T05:16:00.634Z,18.10
2018-09-20T05:18:29.092Z,18.10
2018-09-20T05:20:57.600Z,18.10
2018-09-20T05:23:26.101Z,18.10
2018-09-20T05:25:54.592Z,18.10
2018-09-20T05:28:23.041Z,18.00
2018-09-20T05:30:51.565Z,17.90
2018-09-20T05:33:20.048Z,17.90
2018-09-20T05:35:48.501Z,17.90
2018-09-20T05:38:16.940Z,17.90
2018-09-20T05:40:45.428Z,17.80
2018-09-20T05:43:13.881Z,17.80
2018-09-20T05:45:42.357Z,17.80
2018-09-20T05:48:10.809Z,17.90
2018-09-20T05:50:39.357Z,17.90
2018-09-20T05:53:07.765Z,17.90
2018-09-20T05:55:36.243Z,17.90
2018-09-20T05:58:04.756Z,18.00
2018-09-20T06:00:33.281Z,17.90
2018-09-20T06:03:01.734Z,18.00
2018-09-20T06:05:30.201Z,18.00
2018-09-20T06:07:58.724Z,18.00
2018-09-20T06:10:27.181Z,18.10
2018-09-20T06:12:55.672Z,18.10
2018-09-20T06:15:24.129Z,18.20
2018-09-20T06:17:52.612Z,18.20
2018-09-20T06:20:21.069Z,18.30
2018-09-20T06:22:49.540Z,18.30
2018-09-20T06:25:18.008Z,18.40
2018-09-20T06:27:46.575Z,18.50
2018-09-20T06:30:14.957Z,18.50
2018-09-20T06:32:43.444Z,18.60
2018-09-20T06:35:11.920Z,18.60
2018-09-20T06:37:40.416Z,18.70
2018-09-20T06:40:08.928Z,18.80
2018-09-20T06:42:37.380Z,18.90
2018-09-20T06:45:05.937Z,18.90
2018-09-20T06:47:34.392Z,19.00
2018-09-20T06:50:02.912Z,19.00
2018-09-20T06:52:31.388Z,19.00
2018-09-20T06:54:59.837Z,19.00
2018-09-20T06:57:32.524Z,19.10
2018-09-20T07:00:00.985Z,19.20
2018-09-20T07:02:29.471Z,19.30
2018-09-20T07:04:57.929Z,19.30
2018-09-20T07:07:26.661Z,19.40
2018-09-20T07:09:55.113Z,19.50
2018-09-20T07:12:23.593Z,19.50
2018-09-20T07:14:52.051Z,19.70
2018-09-20T07:17:20.503Z,19.80
2018-09-20T07:19:49.030Z,19.90
2018-09-20T07:22:17.521Z,19.90
2018-09-20T07:24:46.200Z,20.00
2018-09-20T07:27:14.689Z,20.10
2018-09-20T07:29:43.164Z,20.20
2018-09-20T07:32:11.629Z,20.30
2018-09-20T07:34:40.109Z,20.40
2018-09-20T07:37:08.577Z,20.60
2018-09-20T07:39:37.084Z,20.70
2018-09-20T07:42:05.573Z,20.80
2018-09-20T07:44:34.062Z,20.90
2018-09-20T07:47:02.514Z,21.10
2018-09-20T07:49:30.970Z,21.20
2018-09-20T07:51:59.449Z,21.30
2018-09-20T07:54:27.981Z,21.40
2018-09-20T07:56:56.475Z,21.60
2018-09-20T07:59:24.936Z,21.70
2018-09-20T08:01:53.423Z,21.80
2018-09-20T08:04:21.964Z,21.90
2018-09-20T08:06:50.589Z,22.00
2018-09-20T08:09:19.048Z,22.10
2018-09-20T08:11:47.557Z,22.10
2018-09-20T08:14:16.009Z,22.30
2018-09-20T08:16:44.467Z,22.40
2018-09-20T08:19:14.675Z,22.50
2018-09-20T08:21:43.168Z,22.60
2018-09-20T08:24:11.673Z,22.70
2018-09-20T08:26:40.158Z,22.80
2018-09-20T08:29:08.669Z,22.90
2018-09-20T08:31:37.144Z,23.10
2018-09-20T08:34:05.663Z,23.10
2018-09-20T08:36:34.133Z,23.20
2018-09-20T08:39:02.689Z,23.30
2018-09-20T08:41:31.201Z,23.50
2018-09-20T08:43:59.677Z,23.60
2018-09-20T08:46:28.177Z,23.80
2018-09-20T08:48:56.700Z,24.00
2018-09-20T08:51:25.184Z,24.20
2018-09-20T08:53:53.662Z,24.40
2018-09-20T08:56:22.157Z,24.70
2018-09-20T08:58:50.621Z,24.90
2018-09-20T09:01:19.081Z,25.00
2018-09-20T09:03:47.646Z,25.20
2018-09-20T09:06:16.140Z,25.40
2018-09-20T09:08:44.632Z,25.60
2018-09-20T09:11:13.128Z,25.80
2018-09-20T09:13:41.613Z,26.00
2018-09-20T09:16:10.068Z,26.30
2018-09-20T09:18:38.530Z,26.60
2018-09-20T09:21:07.010Z,27.10
2018-09-20T09:23:35.464Z,27.70
2018-09-20T09:26:03.948Z,28.10
2018-09-20T09:28:32.406Z,28.90
2018-09-20T09:31:00.902Z,30.10
2018-09-20T09:33:29.348Z,31.00
2018-09-20T09:35:57.829Z,32.10
2018-09-20T09:38:26.288Z,33.40
2018-09-20T09:40:54.741Z,34.40
2018-09-20T09:43:23.197Z,35.20
2018-09-20T09:45:51.644Z,36.50
2018-09-20T09:48:20.205Z,37.70
2018-09-20T09:50:48.665Z,38.20
2018-09-20T09:53:17.188Z,39.50
2018-09-20T09:55:45.637Z,39.30
2018-09-20T09:58:14.124Z,40.20
2018-09-20T10:00:43.001Z,41.20
2018-09-20T10:03:11.462Z,41.30
2018-09-20T10:05:39.940Z,41.20
2018-09-20T10:08:08.404Z,42.80
2018-09-20T10:10:36.880Z,43.60
2018-09-20T10:13:05.653Z,43.30
2018-09-20T10:15:34.133Z,43.40
2018-09-20T10:18:02.592Z,43.90
2018-09-20T10:20:31.077Z,44.90
2018-09-20T10:22:59.582Z,44.50
2018-09-20T10:25:28.065Z,45.60
2018-09-20T10:27:56.551Z,46.70
2018-09-20T10:30:25.033Z,46.50
2018-09-20T10:32:53.486Z,46.30
2018-09-20T10:35:21.972Z,47.30
2018-09-20T10:37:50.420Z,47.80
2018-09-20T10:40:18.873Z,48.00
2018-09-20T10:42:47.352Z,47.80
2018-09-20T10:45:15.806Z,47.90
2018-09-20T10:47:44.276Z,48.30
2018-09-20T10:50:12.736Z,47.60
2018-09-20T10:52:41.206Z,47.00
2018-09-20T10:55:09.662Z,46.90
2018-09-20T10:57:38.153Z,46.80
2018-09-20T11:00:06.677Z,46.20
2018-09-20T11:02:35.128Z,45.40
2018-09-20T11:05:03.641Z,44.50
2018-09-20T11:07:32.097Z,43.80
2018-09-20T11:10:00.572Z,43.10
2018-09-20T11:12:29.029Z,42.60
2018-09-20T11:14:57.508Z,42.30
2018-09-20T11:17:25.953Z,41.50
2018-09-20T11:19:54.429Z,41.10
2018-09-20T11:22:22.880Z,40.20
2018-09-20T11:24:51.332Z,40.20
2018-09-20T11:27:19.796Z,38.70
2018-09-20T11:29:48.280Z,38.60
2018-09-20T11:32:16.786Z,37.40
2018-09-20T11:34:45.197Z,36.40
2018-09-20T11:37:13.674Z,35.50
2018-09-20T11:39:42.124Z,35.20
2018-09-20T11:42:10.604Z,34.70
2018-09-20T11:44:39.050Z,35.10
2018-09-20T11:47:07.545Z,34.40
2018-09-20T11:49:35.998Z,33.80
2018-09-20T11:52:04.484Z,33.20
2018-09-20T11:54:32.963Z,33.80
2018-09-20T11:57:01.464Z,35.20
2018-09-20T11:59:29.929Z,35.60
2018-09-20T12:01:58.423Z,35.30
2018-09-20T12:04:26.952Z,35.80
2018-09-20T12:06:55.421Z,36.50
2018-09-20T12:09:23.921Z,36.90
2018-09-20T12:11:52.378Z,37.40
2018-09-20T12:14:20.993Z,38.30
2018-09-20T12:16:49.452Z,37.30
2018-09-20T12:19:17.909Z,35.70
2018-09-20T12:21:46.388Z,34.90
2018-09-20T12:24:14.836Z,34.90
2018-09-20T12:26:43.320Z,35.00
2018-09-20T12:29:11.769Z,34.70
2018-09-20T12:31:40.248Z,34.40
2018-09-20T12:34:08.701Z,34.10
2018-09-20T12:36:37.189Z,33.80
2018-09-20T12:39:08.701Z,33.70
2018-09-20T12:41:37.233Z,33.50
2018-09-20T12:44:05.700Z,33.60
2018-09-20T12:46:34.156Z,33.90
2018-09-20T12:49:02.820Z,34.40
2018-09-20T12:51:31.310Z,34.70
2018-09-20T12:53:59.794Z,34.80
2018-09-20T12:56:28.261Z,35.20
2018-09-20T12:58:56.757Z,35.30
2018-09-20T13:01:25.229Z,35.60
2018-09-20T13:03:53.720Z,35.80
2018-09-20T13:06:22.168Z,36.00
2018-09-20T13:08:50.641Z,36.10
2018-09-20T13:11:19.769Z,36.30
2018-09-20T13:13:48.253Z,37.40
2018-09-20T13:16:16.728Z,38.20
2018-09-20T13:18:45.192Z,38.30
2018-09-20T13:21:13.716Z,37.90
2018-09-20T13:23:42.201Z,37.80
2018-09-20T13:26:10.757Z,37.80
2018-09-20T13:28:39.240Z,37.50
2018-09-20T13:31:07.692Z,37.10
2018-09-20T13:33:36.172Z,36.80
2018-09-20T13:36:04.685Z,36.70
2018-09-20T13:38:33.187Z,36.50
2018-09-20T13:41:01.694Z,36.60
2018-09-20T13:43:30.207Z,36.00
2018-09-20T13:45:58.672Z,35.90
2018-09-20T13:48:27.513Z,35.30
2018-09-20T13:50:55.996Z,34.90
2018-09-20T13:53:24.453Z,34.40
2018-09-20T13:55:52.953Z,34.10
2018-09-20T13:58:21.413Z,33.90
2018-09-20T14:00:50.153Z,33.80
2018-09-20T14:03:18.596Z,33.60
2018-09-20T14:05:47.099Z,33.50
2018-09-20T14:08:15.555Z,33.30
2018-09-20T14:10:44.009Z,33.10
2018-09-20T14:13:13.009Z,32.90
2018-09-20T14:15:41.489Z,32.90
2018-09-20T14:18:09.973Z,32.90
2018-09-20T14:20:38.433Z,32.70
2018-09-20T14:23:06.925Z,32.60
2018-09-20T14:25:35.465Z,32.30
2018-09-20T14:28:03.949Z,32.40
2018-09-20T14:30:32.445Z,32.40
2018-09-20T14:33:00.925Z,32.30
2018-09-20T14:35:29.414Z,32.40
2018-09-20T14:37:57.880Z,32.50
2018-09-20T14:40:26.383Z,32.60
2018-09-20T14:42:54.862Z,32.70
2018-09-20T14:45:23.329Z,33.00
2018-09-20T14:47:51.810Z,33.20
2018-09-20T14:50:20.269Z,33.10
2018-09-20T14:52:48.806Z,32.90
2018-09-20T14:55:17.249Z,32.80
2018-09-20T14:57:45.772Z,32.70
2018-09-20T15:00:14.265Z,32.80
2018-09-20T15:02:42.744Z,32.70
2018-09-20T15:05:11.275Z,32.60
2018-09-20T15:07:39.725Z,32.30
2018-09-20T15:10:08.246Z,32.30
2018-09-20T15:12:36.698Z,32.20
2018-09-20T15:15:05.369Z,32.10
2018-09-20T15:17:33.804Z,31.90
2018-09-20T15:20:02.321Z,31.70
2018-09-20T15:22:30.789Z,31.80
2018-09-20T15:24:59.248Z,31.70
2018-09-20T15:27:27.728Z,31.80
2018-09-20T15:29:56.181Z,31.70
2018-09-20T15:32:24.663Z,31.70
2018-09-20T15:34:53.179Z,31.60
2018-09-20T15:37:21.661Z,31.50
2018-09-20T15:39:50.166Z,31.50
2018-09-20T15:42:18.637Z,31.70
2018-09-20T15:44:47.101Z,31.70
2018-09-20T15:47:15.599Z,31.60
2018-09-20T15:49:44.085Z,31.60
2018-09-20T15:52:12.584Z,31.40
2018-09-20T15:54:41.048Z,31.40
2018-09-20T15:57:09.529Z,31.30
2018-09-20T15:59:38.000Z,31.30
2018-09-20T16:02:07.301Z,31.30
2018-09-20T16:04:35.756Z,31.30
2018-09-20T16:07:04.246Z,31.10
2018-09-20T16:09:32.704Z,31.00
2018-09-20T16:12:01.188Z,30.90
2018-09-20T16:14:29.671Z,30.90
2018-09-20T16:16:58.165Z,30.80
2018-09-20T16:19:26.630Z,30.80
2018-09-20T16:21:55.132Z,30.80
2018-09-20T16:24:23.604Z,30.70
2018-09-20T16:26:52.105Z,30.60
2018-09-20T16:29:36.000Z,30.40
2018-09-20T16:32:56.188Z,30.30
2018-09-20T16:35:42.108Z,30.20
2018-09-20T16:38:39.320Z,30.10
2018-09-20T16:41:10.108Z,30.10
2018-09-20T16:43:38.612Z,30.00
2018-09-20T16:46:07.109Z,30.00
2018-09-20T16:48:35.597Z,29.90
2018-09-20T16:51:04.069Z,29.80
2018-09-20T16:53:32.533Z,29.70
2018-09-20T16:56:01.013Z,29.60
2018-09-20T16:58:29.476Z,29.60
2018-09-20T17:00:57.964Z,29.50
2018-09-20T17:03:26.427Z,29.50
2018-09-20T17:05:54.926Z,29.40
2018-09-20T17:08:23.393Z,29.30
2018-09-20T17:10:51.897Z,29.20
2018-09-20T17:13:20.444Z,29.10
2018-09-20T17:15:48.864Z,29.00
2018-09-20T17:18:17.350Z,28.90
2018-09-20T17:20:45.827Z,28.80
2018-09-20T17:23:14.312Z,28.80
2018-09-20T17:25:42.781Z,28.70
2018-09-20T17:28:11.257Z,28.60
2018-09-20T17:30:39.700Z,28.60
2018-09-20T17:33:08.200Z,28.50
2018-09-20T17:35:37.224Z,28.50
2018-09-20T17:38:07.052Z,28.40
2018-09-20T17:40:36.588Z,28.40
2018-09-20T17:43:07.502Z,28.30
2018-09-20T17:45:35.983Z,28.20
2018-09-20T17:48:04.462Z,28.20
2018-09-20T17:50:33.002Z,28.00
2018-09-20T17:53:01.844Z,27.90
2018-09-20T17:55:30.750Z,27.80
2018-09-20T17:57:59.877Z,27.70
2018-09-20T18:00:28.363Z,27.60
2018-09-20T18:02:56.872Z,27.60
2018-09-20T18:05:25.313Z,27.50
2018-09-20T18:07:54.077Z,27.50
2018-09-20T18:10:22.636Z,27.40
2018-09-20T18:15:54.234Z,27.30
2018-09-20T18:18:22.796Z,27.20
2018-09-20T18:20:51.305Z,27.00
2018-09-20T18:23:19.910Z,26.90
2018-09-20T18:25:48.422Z,26.80
2018-09-20T18:28:16.938Z,26.70
2018-09-20T18:30:45.462Z,26.60
2018-09-20T18:33:14.329Z,26.50
2018-09-20T18:35:42.909Z,26.50
2018-09-20T18:38:11.654Z,26.30
2018-09-20T18:40:40.149Z,26.20
2018-09-20T18:43:08.761Z,26.20
2018-09-20T18:45:37.269Z,26.10
2018-09-20T18:48:05.786Z,26.10
2018-09-20T18:50:34.329Z,26.00
2018-09-20T18:53:02.816Z,26.00
2018-09-20T18:55:31.382Z,25.90
2018-09-20T18:57:59.897Z,25.90
2018-09-20T19:00:28.408Z,25.80
2018-09-20T19:02:56.880Z,25.60
2018-09-20T19:05:25.409Z,25.50
2018-09-20T19:07:53.917Z,25.40
2018-09-20T19:10:22.433Z,25.30
2018-09-20T19:12:50.996Z,25.30
2018-09-20T19:15:19.492Z,25.20
2018-09-20T19:17:48.009Z,25.20
2018-09-20T19:20:16.601Z,25.10
2018-09-20T19:22:45.120Z,25.10
2018-09-20T19:25:13.682Z,25.00
2018-09-20T19:27:42.342Z,25.00
2018-09-20T19:30:10.730Z,24.90
2018-09-20T19:32:39.277Z,24.80
2018-09-20T19:35:07.865Z,24.80
2018-09-20T19:37:36.409Z,24.70
2018-09-20T19:40:05.025Z,24.60
2018-09-20T19:42:33.588Z,24.60
2018-09-20T19:45:02.137Z,24.50
2018-09-20T19:47:30.733Z,24.50
2018-09-20T19:49:59.254Z,24.40
2018-09-20T19:52:27.786Z,24.40
2018-09-20T19:54:56.316Z,24.30
2018-09-20T19:57:24.828Z,24.20
2018-09-20T19:59:53.330Z,24.20
2018-09-20T20:02:21.886Z,24.10
2018-09-20T20:04:50.405Z,24.00
2018-09-20T20:07:19.014Z,23.90
2018-09-20T20:09:47.553Z,23.90
2018-09-20T20:12:16.092Z,23.80
2018-09-20T20:14:44.669Z,23.70
2018-09-20T20:17:13.248Z,23.60
2018-09-20T20:19:41.813Z,23.60
2018-09-20T20:22:10.344Z,23.50
2018-09-20T20:24:38.894Z,23.50
2018-09-20T20:27:07.533Z,23.40
2018-09-20T20:29:36.108Z,23.40
2018-09-20T20:32:04.674Z,23.30
2018-09-20T20:34:33.245Z,23.30
2018-09-20T20:37:01.742Z,23.20
2018-09-20T20:39:30.323Z,23.10
2018-09-20T20:41:58.994Z,23.10
2018-09-20T20:44:27.573Z,23.00
2018-09-20T20:46:56.296Z,22.90
2018-09-20T20:49:24.840Z,22.90
2018-09-20T20:51:53.341Z,22.80
2018-09-20T20:54:21.889Z,22.80
2018-09-20T20:56:50.462Z,22.80
2018-09-20T20:59:18.989Z,22.80
2018-09-20T21:01:47.499Z,22.70
2018-09-20T21:04:16.046Z,22.70
2018-09-20T21:06:44.586Z,22.70
2018-09-20T21:09:13.140Z,22.70
2018-09-20T21:11:41.654Z,22.60
2018-09-20T21:14:10.213Z,22.60
2018-09-20T21:16:38.744Z,22.50
2018-09-20T21:19:07.502Z,22.50
2018-09-20T21:21:36.033Z,22.40
2018-09-20T21:24:04.716Z,22.40
2018-09-20T21:26:33.230Z,22.40
2018-09-20T21:29:01.716Z,22.30
2018-09-20T21:31:30.218Z,22.30
2018-09-20T21:33:58.789Z,22.30
2018-09-20T21:36:27.328Z,22.20
2018-09-20T21:38:56.128Z,22.20
2018-09-20T21:41:25.073Z,22.20
2018-09-20T21:43:53.537Z,22.20
2018-09-20T21:46:22.080Z,22.20
2018-09-20T21:48:50.532Z,22.20
2018-09-20T21:51:19.020Z,22.10
2018-09-20T21:53:47.468Z,22.00
2018-09-20T21:56:15.981Z,22.00
2018-09-20T21:58:44.495Z,22.00
2018-09-20T22:01:13.784Z,21.90
2018-09-20T22:03:42.268Z,21.90
2018-09-20T22:06:10.716Z,21.90
2018-09-20T22:08:39.216Z,21.80
2018-09-20T22:11:07.688Z,21.70
2018-09-20T22:13:36.223Z,21.70
2018-09-20T22:16:04.744Z,21.60
2018-09-20T22:18:33.220Z,21.60
2018-09-20T22:21:01.684Z,21.60
2018-09-20T22:23:30.183Z,21.50
2018-09-20T22:25:58.656Z,21.50
2018-09-20T22:28:27.152Z,21.50
2018-09-20T22:30:55.612Z,21.40
2018-09-20T22:33:24.093Z,21.30
2018-09-20T22:35:52.637Z,21.30
2018-09-20T22:38:21.093Z,21.30
2018-09-20T22:40:49.592Z,21.20
2018-09-20T22:43:18.061Z,21.20
2018-09-20T22:45:46.540Z,21.10
2018-09-20T22:48:15.005Z,21.10
2018-09-20T22:50:43.500Z,21.10
2018-09-20T22:53:11.968Z,21.00
2018-09-20T22:55:40.465Z,21.00
2018-09-20T22:58:08.924Z,21.00
2018-09-20T23:00:37.432Z,20.90
2018-09-20T23:03:06.237Z,20.90
2018-09-20T23:05:34.741Z,20.90
2018-09-20T23:08:03.207Z,20.90
2018-09-20T23:10:31.706Z,20.90
2018-09-20T23:13:00.172Z,20.80
2018-09-20T23:15:28.696Z,20.80
2018-09-20T23:17:57.151Z,20.60
2018-09-20T23:20:25.668Z,20.60
2018-09-20T23:22:54.197Z,20.50
2018-09-20T23:25:22.656Z,20.50
2018-09-20T23:27:51.129Z,20.50
2018-09-20T23:30:19.596Z,20.40
2018-09-20T23:32:48.077Z,20.40
2018-09-20T23:35:16.548Z,20.40
2018-09-20T23:37:45.041Z,20.40
2018-09-20T23:40:13.517Z,20.30
2018-09-20T23:42:42.005Z,20.30
2018-09-20T23:45:10.471Z,20.20
2018-09-20T23:47:38.968Z,20.20
2018-09-20T23:50:07.464Z,20.10
2018-09-20T23:52:35.940Z,20.10
2018-09-20T23:55:04.440Z,20.10
2018-09-20T23:57:32.940Z,20.00
